^^
Meteo Knjazevac Station Historical Data
Daily Summary for May 7, 2021 Units:  Metric    English   Both
Daily Weekly Monthly Yearly Custom
  High: Low: Average:
Temperature: 25.9 °C 13.2 °C 19.5 °C
Dew Point: 18.4 °C 12.2 °C 15.7 °C
Humidity: 96% 62% 80%
Wind Speed: 12.9km/h 0km/h 2.7km/h
Wind Gust: 22.5km/h - -
Wind- - South
Pressure: 1020.2 hPa 1018.2 hPa -
Precipitation: 0 mm    
Historical Graphs
 
 
Tabular Data for May 7, 2021
Time Temperature Dew Point Pressure Wind Wind Speed Wind Gust Humidity Rainfall Rate (Hourly) solar Conditions
00:00 18.4 °C 15.5 °C 1019.9 hPa SE 3.2 km/h 6.4 km/h 83% 0 mm 0 W/m2
00:10 18.3 °C 15.4 °C 1019.9 hPa WSW 1.6 km/h 6.4 km/h 83% 0 mm 0 W/m2
00:20 18.1 °C 15.3 °C 1019.9 hPa WSW 1.6 km/h 6.4 km/h 84% 0 mm 0 W/m2
00:30 18 °C 15.3 °C 1019.9 hPa NNE 1.6 km/h 4.8 km/h 84% 0 mm 0 W/m2
00:40 17.9 °C 15.2 °C 1019.9 hPa ENE 1.6 km/h 6.4 km/h 84% 0 mm 0 W/m2
00:50 17.9 °C 15.2 °C 1019.9 hPa Calm   3.2 km/h 84% 0 mm 0 W/m2
01:00 17.7 °C 15.2 °C 1019.5 hPa NNW 1.6 km/h 3.2 km/h 85% 0 mm 0 W/m2
01:10 17.5 °C 14.9 °C 1019.5 hPa Calm   3.2 km/h 85% 0 mm 0 W/m2
01:20 17.3 °C 14.8 °C 1019.9 hPa ESE 3.2 km/h 6.4 km/h 85% 0 mm 0 W/m2
01:30 17.1 °C 14.7 °C 1019.5 hPa Calm   4.8 km/h 86% 0 mm 0 W/m2
01:40 17 °C 14.7 °C 1019.5 hPa Calm   4.8 km/h 86% 0 mm 0 W/m2
01:50 16.8 °C 14.4 °C 1019.5 hPa Calm   3.2 km/h 86% 0 mm 0 W/m2
02:00 16.6 °C 14.3 °C 1019.5 hPa Calm   3.2 km/h 86% 0 mm 0 W/m2
02:10 16.4 °C 14.4 °C 1019.5 hPa Calm   1.6 km/h 88% 0 mm 0 W/m2
02:20 16.2 °C 14.2 °C 1019.5 hPa NNW 1.6 km/h 3.2 km/h 88% 0 mm 0 W/m2
02:30 16.1 °C 14.3 °C 1019.5 hPa Calm   4.8 km/h 89% 0 mm 0 W/m2
02:40 15.9 °C 14.1 °C 1019.5 hPa Calm     89% 0 mm 0 W/m2
02:50 15.8 °C 14 °C 1019.5 hPa Calm   3.2 km/h 89% 0 mm 0 W/m2
03:00 15.7 °C 14.1 °C 1019.5 hPa Calm   3.2 km/h 90% 0 mm 0 W/m2
03:10 15.5 °C 13.9 °C 1019.5 hPa East 1.6 km/h 3.2 km/h 90% 0 mm 0 W/m2
03:20 15.3 °C 13.7 °C 1019.5 hPa Calm   3.2 km/h 90% 0 mm 0 W/m2
03:30 15.2 °C 13.6 °C 1019.5 hPa Calm   3.2 km/h 90% 0 mm 0 W/m2
03:40 14.9 °C 13.3 °C 1019.5 hPa NNW 1.6 km/h 3.2 km/h 90% 0 mm 0 W/m2
03:50 14.8 °C 13.3 °C 1019.5 hPa Calm     91% 0 mm 0 W/m2
04:00 14.6 °C 13 °C 1019.5 hPa Calm   3.2 km/h 90% 0 mm 0 W/m2
04:10 14.4 °C 12.9 °C 1019.5 hPa Calm   3.2 km/h 91% 0 mm 0 W/m2
04:20 14.2 °C 12.8 °C 1019.5 hPa North 1.6 km/h 3.2 km/h 91% 0 mm 0 W/m2
04:30 13.9 °C 12.4 °C 1019.9 hPa Calm   1.6 km/h 91% 0 mm 0 W/m2
04:40 13.8 °C 12.3 °C 1019.9 hPa Calm   1.6 km/h 91% 0 mm 0 W/m2
04:50 13.6 °C 12.5 °C 1019.9 hPa Calm   3.2 km/h 93% 0 mm 3 W/m2
05:00 13.6 °C 12.5 °C 1019.9 hPa Calm     93% 0 mm 8 W/m2
05:10 13.5 °C 12.4 °C 1019.9 hPa Calm   3.2 km/h 93% 0 mm 17 W/m2
05:20 13.3 °C 12.2 °C 1019.9 hPa Calm   3.2 km/h 93% 0 mm 28 W/m2
05:30 13.3 °C 12.3 °C 1019.9 hPa Calm   3.2 km/h 94% 0 mm 37 W/m2
05:40 13.2 °C 12.3 °C 1020.2 hPa NW 1.6 km/h 3.2 km/h 94% 0 mm 43 W/m2
05:50 13.3 °C 12.3 °C 1019.9 hPa Calm   4.8 km/h 94% 0 mm 61 W/m2
06:00 13.2 °C 12.3 °C 1020.2 hPa Calm   1.6 km/h 94% 0 mm 101 W/m2
06:10 13.3 °C 12.5 °C 1020.2 hPa Calm   3.2 km/h 95% 0 mm 114 W/m2
06:20 13.5 °C 12.7 °C 1020.2 hPa Calm   1.6 km/h 95% 0 mm 148 W/m2
06:30 13.7 °C 12.9 °C 1020.2 hPa Calm   1.6 km/h 95% 0 mm 116 W/m2
06:40 13.9 °C 13.1 °C 1020.2 hPa Calm   1.6 km/h 95% 0 mm 108 W/m2
06:50 14.1 °C 13.4 °C 1020.2 hPa NW 1.6 km/h 3.2 km/h 96% 0 mm 121 W/m2
07:00 14.3 °C 13.7 °C 1020.2 hPa SW 1.6 km/h 3.2 km/h 96% 0 mm 322 W/m2
07:10 14.7 °C 14.1 °C 1020.2 hPa Calm   3.2 km/h 96% 0 mm 337 W/m2
07:20 15.2 °C 14.4 °C 1020.2 hPa Calm   3.2 km/h 95% 0 mm 218 W/m2
07:30 15.7 °C 14.9 °C 1020.2 hPa Calm   3.2 km/h 95% 0 mm 248 W/m2
07:40 16.3 °C 15.3 °C 1020.2 hPa Calm   4.8 km/h 94% 0 mm 278 W/m2
07:50 16.9 °C 15.4 °C 1020.2 hPa SE 3.2 km/h 6.4 km/h 91% 0 mm 354 W/m2
08:00 17.4 °C 15.7 °C 1020.2 hPa South 3.2 km/h 8 km/h 90% 0 mm 468 W/m2
08:10 17.9 °C 16.2 °C 1020.2 hPa SSE 3.2 km/h 6.4 km/h 90% 0 mm 328 W/m2
08:20 18.4 °C 16.6 °C 1020.2 hPa South 1.6 km/h 6.4 km/h 89% 0 mm 504 W/m2
08:30 18.7 °C 16.7 °C 1020.2 hPa South 1.6 km/h 9.7 km/h 88% 0 mm 274 W/m2
08:40 18.9 °C 16.3 °C 1020.2 hPa SW 1.6 km/h 4.8 km/h 85% 0 mm 621 W/m2
08:50 19.3 °C 16.7 °C 1020.2 hPa NW 3.2 km/h 8 km/h 85% 0 mm 571 W/m2
09:00 20.1 °C 17.1 °C 1020.2 hPa Calm   6.4 km/h 83% 0 mm 676 W/m2
09:10 21 °C 17 °C 1020.2 hPa Calm   8 km/h 78% 0 mm 666 W/m2
09:20 21.4 °C 16.8 °C 1020.2 hPa Calm   6.4 km/h 75% 0 mm 629 W/m2
09:30 21.8 °C 16.8 °C 1020.2 hPa East 3.2 km/h 6.4 km/h 73% 0 mm 751 W/m2
09:40 22.2 °C 16.9 °C 1020.2 hPa West 3.2 km/h 8 km/h 72% 0 mm 774 W/m2
09:50 22.7 °C 16.9 °C 1020.2 hPa West 3.2 km/h 8 km/h 70% 0 mm 797 W/m2
10:00 23.4 °C 17.4 °C 1019.9 hPa SSW 1.6 km/h 8 km/h 69% 0 mm 818 W/m2
10:10 23.9 °C 17.4 °C 1020.2 hPa SSW 3.2 km/h 8 km/h 67% 0 mm 838 W/m2
10:20 24.2 °C 17.7 °C 1019.9 hPa WSW 3.2 km/h 9.7 km/h 67% 0 mm 856 W/m2
10:30 24.6 °C 17.3 °C 1019.9 hPa South 4.8 km/h 11.3 km/h 64% 0 mm 874 W/m2
10:40 25 °C 17.7 °C 1019.9 hPa NE 3.2 km/h 11.3 km/h 64% 0 mm 354 W/m2
10:50 25.2 °C 17.7 °C 1019.9 hPa NNE 4.8 km/h 11.3 km/h 63% 0 mm 905 W/m2
11:00 25.3 °C 17.5 °C 1019.9 hPa Calm   9.7 km/h 62% 0 mm 666 W/m2
11:10 25.1 °C 17.6 °C 1019.5 hPa NNE 3.2 km/h 11.3 km/h 63% 0 mm 716 W/m2
11:20 24.9 °C 17.1 °C 1019.5 hPa NNE 3.2 km/h 8 km/h 62% 0 mm 462 W/m2
11:30 24.7 °C 17.7 °C 1019.5 hPa Calm   8 km/h 65% 0 mm 445 W/m2
11:40 24.7 °C 17.7 °C 1019.5 hPa North 1.6 km/h 8 km/h 65% 0 mm 423 W/m2
11:50 24.7 °C 17.2 °C 1019.5 hPa NW 1.6 km/h 8 km/h 63% 0 mm 539 W/m2
12:00 24.8 °C 17.3 °C 1019.2 hPa Calm   6.4 km/h 63% 0 mm 671 W/m2
12:10 24.8 °C 17.3 °C 1019.2 hPa West 3.2 km/h 9.7 km/h 63% 0 mm 556 W/m2
12:20 24.9 °C 17.9 °C 1019.2 hPa West 1.6 km/h 8 km/h 65% 0 mm 800 W/m2
12:30 25.4 °C 17.8 °C 1018.8 hPa WNW 3.2 km/h 8 km/h 63% 0 mm 683 W/m2
12:40 25.5 °C 17.9 °C 1018.8 hPa WSW 3.2 km/h 11.3 km/h 63% 0 mm 549 W/m2
12:50 25.5 °C 18.2 °C 1018.8 hPa NNW 1.6 km/h 8 km/h 64% 0 mm 456 W/m2
13:00 25.5 °C 18.2 °C 1018.8 hPa WSW 4.8 km/h 12.9 km/h 64% 0 mm 611 W/m2
13:10 25.5 °C 18.2 °C 1018.5 hPa WSW 4.8 km/h 16.1 km/h 64% 0 mm 650 W/m2
13:20 25.4 °C 17.8 °C 1018.5 hPa West 1.6 km/h 11.3 km/h 63% 0 mm 689 W/m2
13:30 25.6 °C 18.1 °C 1018.5 hPa West 4.8 km/h 12.9 km/h 63% 0 mm 625 W/m2
13:40 25.7 °C 17.9 °C 1018.5 hPa SW 4.8 km/h 11.3 km/h 62% 0 mm 935 W/m2
13:50 25.9 °C 18.1 °C 1018.5 hPa SW 8 km/h 12.9 km/h 62% 0 mm 323 W/m2
14:00 25.6 °C 18.1 °C 1018.5 hPa WSW 3.2 km/h 11.3 km/h 63% 0 mm 257 W/m2
14:10 25.4 °C 17.8 °C 1018.5 hPa WSW 8 km/h 11.3 km/h 63% 0 mm 181 W/m2
14:20 24.7 °C 18.4 °C 1018.5 hPa WNW 12.9 km/h 20.9 km/h 68% 0 mm 152 W/m2
14:30 23.9 °C 17.9 °C 1018.5 hPa West 9.7 km/h 20.9 km/h 69% 0 mm 121 W/m2
14:40 23.1 °C 16.8 °C 1018.5 hPa West 12.9 km/h 22.5 km/h 68% 0 mm 98 W/m2
14:50 22.2 °C 16 °C 1018.8 hPa West 11.3 km/h 22.5 km/h 68% 0 mm 93 W/m2
15:00 21.5 °C 16.2 °C 1018.5 hPa West 8 km/h 20.9 km/h 72% 0 mm 96 W/m2
15:10 21.1 °C 16.5 °C 1018.5 hPa WSW 4.8 km/h 16.1 km/h 75% 0 mm 112 W/m2
15:20 20.7 °C 16.7 °C 1018.8 hPa West 8 km/h 14.5 km/h 78% 0.25 mm 145 W/m2
15:30 20.3 °C 16.3 °C 1018.5 hPa West 9.7 km/h 19.3 km/h 78% 0 mm 172 W/m2
15:40 20.3 °C 16.6 °C 1018.8 hPa West 1.6 km/h 14.5 km/h 79% 0 mm 202 W/m2
15:50 20.4 °C 16.4 °C 1018.8 hPa Calm   4.8 km/h 78% 0 mm 227 W/m2
16:00 20.5 °C 16.6 °C 1018.8 hPa WSW 1.6 km/h 4.8 km/h 78% 0 mm 242 W/m2
16:10 20.6 °C 16.7 °C 1018.8 hPa SW 1.6 km/h 3.2 km/h 78% 0 mm 282 W/m2
16:20 20.9 °C 16.9 °C 1018.8 hPa SE 4.8 km/h 12.9 km/h 78% 0 mm 261 W/m2
16:30 21.1 °C 17.3 °C 1018.5 hPa SSE 3.2 km/h 8 km/h 79% 0 mm 257 W/m2
16:40 21.3 °C 17.3 °C 1018.8 hPa SSW 1.6 km/h 8 km/h 78% 0 mm 240 W/m2
16:50 21.5 °C 16.9 °C 1018.8 hPa SSE 3.2 km/h 16.1 km/h 75% 0 mm 202 W/m2
17:00 21.4 °C 16.3 °C 1018.8 hPa SSE 8 km/h 19.3 km/h 73% 0 mm 167 W/m2
17:10 21.4 °C 16.3 °C 1018.8 hPa SE 4.8 km/h 19.3 km/h 73% 0 mm 297 W/m2
17:20 21.5 °C 16.4 °C 1018.8 hPa SSE 4.8 km/h 11.3 km/h 73% 0 mm 257 W/m2
17:30 21.7 °C 16.9 °C 1018.5 hPa SSW 4.8 km/h 9.7 km/h 74% 0 mm 296 W/m2
17:40 21.9 °C 17.3 °C 1018.5 hPa South 1.6 km/h 9.7 km/h 75% 0 mm 304 W/m2
17:50 22.2 °C 17.3 °C 1018.5 hPa South 4.8 km/h 11.3 km/h 74% 0 mm 171 W/m2
18:00 22.4 °C 17.1 °C 1018.5 hPa SSW 4.8 km/h 11.3 km/h 72% 0 mm 287 W/m2
18:10 22.4 °C 17.3 °C 1018.2 hPa SSE 1.6 km/h 12.9 km/h 73% 0 mm 219 W/m2
18:20 22.6 °C 17.5 °C 1018.2 hPa SW 1.6 km/h 6.4 km/h 73% 0 mm 194 W/m2
18:30 22.8 °C 17.5 °C 1018.2 hPa SSW 3.2 km/h 6.4 km/h 72% 0 mm 187 W/m2
18:40 22.7 °C 17.4 °C 1018.2 hPa South 3.2 km/h 8 km/h 72% 0 mm 97 W/m2
18:50 22.4 °C 17.3 °C 1018.5 hPa ESE 1.6 km/h 8 km/h 73% 0 mm 84 W/m2
19:00 22.2 °C 17.1 °C 1018.5 hPa ESE 1.6 km/h 4.8 km/h 73% 0 mm 60 W/m2
19:10 21.9 °C 16.8 °C 1018.5 hPa SE 1.6 km/h 8 km/h 73% 0 mm 47 W/m2
19:20 21.7 °C 16.7 °C 1018.5 hPa SSE 1.6 km/h 4.8 km/h 73% 0 mm 43 W/m2
19:30 21.5 °C 16.2 °C 1018.5 hPa ESE 4.8 km/h 9.7 km/h 72% 0 mm 30 W/m2
19:40 21.1 °C 16.1 °C 1018.5 hPa SE 4.8 km/h 9.7 km/h 73% 0 mm 20 W/m2
19:50 20.8 °C 16 °C 1018.5 hPa ESE 4.8 km/h 11.3 km/h 74% 0 mm 13 W/m2
20:00 20.4 °C 15.8 °C 1018.5 hPa SE 4.8 km/h 11.3 km/h 75% 0 mm 7 W/m2
20:10 20.1 °C 15.9 °C 1018.8 hPa SE 4.8 km/h 12.9 km/h 77% 0 mm 0 W/m2
20:20 19.9 °C 15.9 °C 1018.8 hPa SSE 3.2 km/h 9.7 km/h 78% 0 mm 0 W/m2
20:30 19.7 °C 15.9 °C 1018.8 hPa SE 3.2 km/h 8 km/h 79% 0 mm 0 W/m2
20:40 19.5 °C 15.8 °C 1018.8 hPa SSE 3.2 km/h 6.4 km/h 79% 0 mm 0 W/m2
20:50 19.4 °C 15.8 °C 1018.8 hPa ESE 1.6 km/h 9.7 km/h 80% 0 mm 0 W/m2
21:00 19.2 °C 15.7 °C 1019.2 hPa ESE 3.2 km/h 11.3 km/h 80% 0 mm 0 W/m2
21:10 19.1 °C 15.6 °C 1019.2 hPa SSE 1.6 km/h 8 km/h 80% 0 mm 0 W/m2
21:20 19.1 °C 15.7 °C 1019.2 hPa Calm   4.8 km/h 81% 0 mm 0 W/m2
21:30 18.9 °C 15.9 °C 1019.2 hPa ENE 4.8 km/h 11.3 km/h 83% 0 mm 0 W/m2
21:40 18.7 °C 15.8 °C 1019.5 hPa ESE 8 km/h 12.9 km/h 83% 0 mm 0 W/m2
21:50 18.4 °C 15.7 °C 1019.5 hPa ESE 4.8 km/h 14.5 km/h 84% 0 mm 0 W/m2
22:00 18.3 °C 15.6 °C 1019.5 hPa ESE 4.8 km/h 14.5 km/h 84% 0 mm 0 W/m2
22:10 18.1 °C 15.6 °C 1019.5 hPa ESE 3.2 km/h 14.5 km/h 85% 0 mm 0 W/m2
22:20 17.9 °C 15.3 °C 1019.5 hPa SE 4.8 km/h 11.3 km/h 85% 0 mm 0 W/m2
22:30 17.8 °C 15.2 °C 1019.5 hPa Calm   6.4 km/h 85% 0 mm 0 W/m2
22:40 17.7 °C 15.1 °C 1019.5 hPa NE 3.2 km/h 11.3 km/h 85% 0 mm 0 W/m2
22:50 17.4 °C 14.8 °C 1019.5 hPa SE 4.8 km/h 14.5 km/h 85% 0 mm 0 W/m2
23:00 17.1 °C 14.7 °C 1019.9 hPa SE 4.8 km/h 12.9 km/h 86% 0 mm 0 W/m2
23:10 17 °C 14.7 °C 1019.5 hPa SE 8 km/h 14.5 km/h 86% 0 mm 0 W/m2
23:20 16.9 °C 14.6 °C 1019.5 hPa SE 4.8 km/h 12.9 km/h 86% 0 mm 0 W/m2
23:30 16.8 °C 14.4 °C 1019.5 hPa SE 3.2 km/h 9.7 km/h 86% 0 mm 0 W/m2
23:40 16.7 °C 14.7 °C 1019.5 hPa SSE 8 km/h 12.9 km/h 88% 0 mm 0 W/m2
23:50 16.6 °C 14.6 °C 1019.9 hPa SSE 1.6 km/h 11.3 km/h 88% 0 mm 0 W/m2
Knjazevac, Serbia
Compliments of Weather Underground - 2 mb